sensor_id;sensor_type;location;lat;lon;timestamp;P1;durP1;ratioP1;P2;durP2;ratioP2
21786;SDS011;11055;50.870;4.316;2023-03-23T00:00:05;6.40;;;4.30;;
21786;SDS011;11055;50.870;4.316;2023-03-23T00:02:33;4.68;;;3.55;;
21786;SDS011;11055;50.870;4.316;2023-03-23T00:05:03;7.45;;;4.03;;
21786;SDS011;11055;50.870;4.316;2023-03-23T00:07:33;5.43;;;3.80;;
21786;SDS011;11055;50.870;4.316;2023-03-23T00:10:01;5.00;;;4.30;;
21786;SDS011;11055;50.870;4.316;2023-03-23T00:12:27;6.68;;;4.30;;
21786;SDS011;11055;50.870;4.316;2023-03-23T00:15:00;10.75;;;5.30;;
21786;SDS011;11055;50.870;4.316;2023-03-23T00:17:31;10.63;;;6.47;;
21786;SDS011;11055;50.870;4.316;2023-03-23T00:20:01;11.02;;;6.70;;
21786;SDS011;11055;50.870;4.316;2023-03-23T00:22:30;11.77;;;7.38;;
21786;SDS011;11055;50.870;4.316;2023-03-23T00:24:55;10.80;;;7.38;;
21786;SDS011;11055;50.870;4.316;2023-03-23T00:27:21;9.38;;;5.95;;
21786;SDS011;11055;50.870;4.316;2023-03-23T00:29:51;7.05;;;5.55;;
21786;SDS011;11055;50.870;4.316;2023-03-23T00:32:21;10.40;;;5.50;;
21786;SDS011;11055;50.870;4.316;2023-03-23T00:34:52;7.97;;;5.43;;
21786;SDS011;11055;50.870;4.316;2023-03-23T00:37:19;6.28;;;5.07;;
21786;SDS011;11055;50.870;4.316;2023-03-23T00:39:46;5.63;;;5.07;;
21786;SDS011;11055;50.870;4.316;2023-03-23T00:42:12;5.10;;;4.60;;
21786;SDS011;11055;50.870;4.316;2023-03-23T00:44:39;6.30;;;5.25;;
21786;SDS011;11055;50.870;4.316;2023-03-23T00:47:05;6.70;;;5.43;;
21786;SDS011;11055;50.870;4.316;2023-03-23T00:49:33;7.60;;;4.65;;
21786;SDS011;11055;50.870;4.316;2023-03-23T00:51:59;6.13;;;4.93;;
21786;SDS011;11055;50.870;4.316;2023-03-23T00:54:25;7.80;;;5.30;;
21786;SDS011;11055;50.870;4.316;2023-03-23T00:56:52;6.18;;;5.18;;
21786;SDS011;11055;50.870;4.316;2023-03-23T00:59:18;7.03;;;4.78;;
21786;SDS011;11055;50.870;4.316;2023-03-23T01:01:44;8.32;;;4.93;;
21786;SDS011;11055;50.870;4.316;2023-03-23T01:04:10;5.45;;;4.50;;
21786;SDS011;11055;50.870;4.316;2023-03-23T01:06:37;8.07;;;5.30;;
21786;SDS011;11055;50.870;4.316;2023-03-23T01:09:05;6.47;;;4.80;;
21786;SDS011;11055;50.870;4.316;2023-03-23T01:11:32;6.65;;;4.65;;
21786;SDS011;11055;50.870;4.316;2023-03-23T01:13:59;6.05;;;4.88;;
21786;SDS011;11055;50.870;4.316;2023-03-23T01:16:26;7.15;;;5.10;;
21786;SDS011;11055;50.870;4.316;2023-03-23T01:18:52;5.30;;;4.80;;
21786;SDS011;11055;50.870;4.316;2023-03-23T01:21:18;7.25;;;4.82;;
21786;SDS011;11055;50.870;4.316;2023-03-23T01:23:45;5.07;;;4.28;;
21786;SDS011;11055;50.870;4.316;2023-03-23T01:26:13;7.22;;;4.30;;
21786;SDS011;11055;50.870;4.316;2023-03-23T01:28:43;5.65;;;5.15;;
21786;SDS011;11055;50.870;4.316;2023-03-23T01:31:11;7.07;;;6.00;;
21786;SDS011;11055;50.870;4.316;2023-03-23T01:33:38;6.85;;;5.30;;
21786;SDS011;11055;50.870;4.316;2023-03-23T01:36:05;6.13;;;5.53;;
21786;SDS011;11055;50.870;4.316;2023-03-23T01:38:33;6.32;;;4.97;;
21786;SDS011;11055;50.870;4.316;2023-03-23T01:41:00;5.05;;;4.55;;
21786;SDS011;11055;50.870;4.316;2023-03-23T01:43:27;5.03;;;4.28;;
21786;SDS011;11055;50.870;4.316;2023-03-23T01:45:53;5.93;;;4.68;;
21786;SDS011;11055;50.870;4.316;2023-03-23T01:48:32;4.72;;;4.22;;
21786;SDS011;11055;50.870;4.316;2023-03-23T01:51:06;4.85;;;4.30;;
21786;SDS011;11055;50.870;4.316;2023-03-23T01:53:48;6.60;;;4.40;;
21786;SDS011;11055;50.870;4.316;2023-03-23T01:56:21;5.50;;;4.00;;
21786;SDS011;11055;50.870;4.316;2023-03-23T01:58:50;5.72;;;3.50;;
21786;SDS011;11055;50.870;4.316;2023-03-23T02:01:17;7.35;;;4.22;;
21786;SDS011;11055;50.870;4.316;2023-03-23T02:03:44;5.07;;;3.90;;
21786;SDS011;11055;50.870;4.316;2023-03-23T02:06:11;4.13;;;3.22;;
21786;SDS011;11055;50.870;4.316;2023-03-23T02:08:37;6.00;;;3.72;;
21786;SDS011;11055;50.870;4.316;2023-03-23T02:13:59;5.90;;;3.33;;
21786;SDS011;11055;50.870;4.316;2023-03-23T02:16:40;4.68;;;2.70;;
21786;SDS011;11055;50.870;4.316;2023-03-23T02:25:38;5.25;;;2.40;;
21786;SDS011;11055;50.870;4.316;2023-03-23T02:33:53;3.38;;;2.05;;
21786;SDS011;11055;50.870;4.316;2023-03-23T02:39:05;3.45;;;1.83;;
21786;SDS011;11055;50.870;4.316;2023-03-23T02:41:45;2.92;;;1.77;;
21786;SDS011;11055;50.870;4.316;2023-03-23T02:44:20;5.07;;;1.90;;
21786;SDS011;11055;50.870;4.316;2023-03-23T02:46:48;3.80;;;1.90;;
21786;SDS011;11055;50.870;4.316;2023-03-23T02:49:15;3.50;;;1.70;;
21786;SDS011;11055;50.870;4.316;2023-03-23T02:51:43;2.72;;;1.38;;
21786;SDS011;11055;50.870;4.316;2023-03-23T02:54:11;2.65;;;1.55;;
21786;SDS011;11055;50.870;4.316;2023-03-23T02:56:38;1.92;;;1.33;;
21786;SDS011;11055;50.870;4.316;2023-03-23T02:59:05;3.63;;;1.52;;
21786;SDS011;11055;50.870;4.316;2023-03-23T03:04:05;2.05;;;1.40;;
21786;SDS011;11055;50.870;4.316;2023-03-23T03:06:50;2.28;;;1.30;;
21786;SDS011;11055;50.870;4.316;2023-03-23T03:09:36;3.13;;;1.63;;
21786;SDS011;11055;50.870;4.316;2023-03-23T03:15:31;2.22;;;1.40;;
21786;SDS011;11055;50.870;4.316;2023-03-23T03:18:04;3.05;;;1.65;;
21786;SDS011;11055;50.870;4.316;2023-03-23T03:20:37;3.72;;;1.33;;
21786;SDS011;11055;50.870;4.316;2023-03-23T03:23:07;2.50;;;1.33;;
21786;SDS011;11055;50.870;4.316;2023-03-23T03:25:37;3.90;;;1.27;;
21786;SDS011;11055;50.870;4.316;2023-03-23T03:28:06;2.25;;;1.38;;
21786;SDS011;11055;50.870;4.316;2023-03-23T03:30:31;2.22;;;1.20;;
21786;SDS011;11055;50.870;4.316;2023-03-23T03:33:00;5.78;;;1.60;;
21786;SDS011;11055;50.870;4.316;2023-03-23T03:35:28;3.45;;;1.40;;
21786;SDS011;11055;50.870;4.316;2023-03-23T03:37:55;5.05;;;1.42;;
21786;SDS011;11055;50.870;4.316;2023-03-23T03:40:23;2.00;;;1.20;;
21786;SDS011;11055;50.870;4.316;2023-03-23T03:42:50;3.00;;;1.20;;
21786;SDS011;11055;50.870;4.316;2023-03-23T03:45:17;4.55;;;1.60;;
21786;SDS011;11055;50.870;4.316;2023-03-23T03:47:44;3.08;;;1.30;;
21786;SDS011;11055;50.870;4.316;2023-03-23T03:50:10;3.22;;;1.23;;
21786;SDS011;11055;50.870;4.316;2023-03-23T03:52:36;3.97;;;1.40;;
21786;SDS011;11055;50.870;4.316;2023-03-23T03:55:03;5.10;;;1.70;;
21786;SDS011;11055;50.870;4.316;2023-03-23T03:57:32;8.02;;;1.75;;
21786;SDS011;11055;50.870;4.316;2023-03-23T03:59:58;6.10;;;1.60;;
21786;SDS011;11055;50.870;4.316;2023-03-23T04:02:24;5.65;;;1.58;;
21786;SDS011;11055;50.870;4.316;2023-03-23T04:04:50;5.97;;;1.50;;
21786;SDS011;11055;50.870;4.316;2023-03-23T04:07:17;6.50;;;1.60;;
21786;SDS011;11055;50.870;4.316;2023-03-23T04:09:44;5.43;;;1.80;;
21786;SDS011;11055;50.870;4.316;2023-03-23T04:12:14;6.60;;;1.80;;
21786;SDS011;11055;50.870;4.316;2023-03-23T04:14:40;7.60;;;1.63;;
21786;SDS011;11055;50.870;4.316;2023-03-23T04:17:06;8.57;;;2.08;;
21786;SDS011;11055;50.870;4.316;2023-03-23T04:19:34;8.60;;;2.30;;
21786;SDS011;11055;50.870;4.316;2023-03-23T04:22:01;7.63;;;1.55;;
21786;SDS011;11055;50.870;4.316;2023-03-23T04:24:28;5.93;;;1.88;;
21786;SDS011;11055;50.870;4.316;2023-03-23T04:26:56;6.30;;;1.60;;
21786;SDS011;11055;50.870;4.316;2023-03-23T04:29:21;9.90;;;1.63;;
21786;SDS011;11055;50.870;4.316;2023-03-23T04:31:47;5.28;;;1.52;;
21786;SDS011;11055;50.870;4.316;2023-03-23T04:34:15;8.43;;;1.85;;
21786;SDS011;11055;50.870;4.316;2023-03-23T04:36:41;7.32;;;1.95;;
21786;SDS011;11055;50.870;4.316;2023-03-23T04:39:07;6.40;;;2.00;;
21786;SDS011;11055;50.870;4.316;2023-03-23T04:41:38;4.55;;;2.08;;
21786;SDS011;11055;50.870;4.316;2023-03-23T04:44:05;4.43;;;1.42;;
21786;SDS011;11055;50.870;4.316;2023-03-23T04:46:32;6.68;;;1.73;;
21786;SDS011;11055;50.870;4.316;2023-03-23T04:48:58;6.22;;;1.80;;
21786;SDS011;11055;50.870;4.316;2023-03-23T04:51:28;6.68;;;1.75;;
21786;SDS011;11055;50.870;4.316;2023-03-23T04:53:54;8.48;;;2.13;;
21786;SDS011;11055;50.870;4.316;2023-03-23T04:56:20;5.65;;;1.60;;
21786;SDS011;11055;50.870;4.316;2023-03-23T04:58:46;5.53;;;1.90;;
21786;SDS011;11055;50.870;4.316;2023-03-23T05:01:12;4.97;;;1.30;;
21786;SDS011;11055;50.870;4.316;2023-03-23T05:03:42;7.13;;;1.50;;
21786;SDS011;11055;50.870;4.316;2023-03-23T05:06:08;6.13;;;1.50;;
21786;SDS011;11055;50.870;4.316;2023-03-23T05:08:34;4.32;;;1.45;;
21786;SDS011;11055;50.870;4.316;2023-03-23T05:11:03;4.53;;;1.50;;
21786;SDS011;11055;50.870;4.316;2023-03-23T05:13:30;5.68;;;1.73;;
21786;SDS011;11055;50.870;4.316;2023-03-23T05:15:56;3.95;;;2.03;;
21786;SDS011;11055;50.870;4.316;2023-03-23T05:18:22;5.43;;;2.25;;
21786;SDS011;11055;50.870;4.316;2023-03-23T05:20:48;3.80;;;1.50;;
21786;SDS011;11055;50.870;4.316;2023-03-23T05:23:17;4.85;;;1.38;;
21786;SDS011;11055;50.870;4.316;2023-03-23T05:25:52;5.75;;;1.67;;
21786;SDS011;11055;50.870;4.316;2023-03-23T05:28:21;6.20;;;1.50;;
21786;SDS011;11055;50.870;4.316;2023-03-23T05:30:47;3.45;;;1.40;;
21786;SDS011;11055;50.870;4.316;2023-03-23T05:33:14;5.50;;;1.70;;
21786;SDS011;11055;50.870;4.316;2023-03-23T05:35:40;7.05;;;1.80;;
21786;SDS011;11055;50.870;4.316;2023-03-23T05:38:05;6.63;;;1.55;;
21786;SDS011;11055;50.870;4.316;2023-03-23T05:40:31;6.78;;;1.52;;
21786;SDS011;11055;50.870;4.316;2023-03-23T05:42:57;6.88;;;1.48;;
21786;SDS011;11055;50.870;4.316;2023-03-23T05:45:24;5.63;;;1.40;;
21786;SDS011;11055;50.870;4.316;2023-03-23T05:47:51;6.38;;;1.70;;
21786;SDS011;11055;50.870;4.316;2023-03-23T05:50:17;5.88;;;1.40;;
21786;SDS011;11055;50.870;4.316;2023-03-23T05:52:43;5.20;;;1.77;;
21786;SDS011;11055;50.870;4.316;2023-03-23T05:55:09;3.88;;;1.40;;
21786;SDS011;11055;50.870;4.316;2023-03-23T05:57:36;7.57;;;1.80;;
21786;SDS011;11055;50.870;4.316;2023-03-23T06:00:02;7.13;;;1.83;;
21786;SDS011;11055;50.870;4.316;2023-03-23T06:02:46;5.75;;;1.42;;
21786;SDS011;11055;50.870;4.316;2023-03-23T06:05:13;5.68;;;1.40;;
21786;SDS011;11055;50.870;4.316;2023-03-23T06:07:41;4.05;;;1.65;;
21786;SDS011;11055;50.870;4.316;2023-03-23T06:10:07;4.00;;;1.83;;
21786;SDS011;11055;50.870;4.316;2023-03-23T06:12:34;4.85;;;1.33;;
21786;SDS011;11055;50.870;4.316;2023-03-23T06:15:00;5.85;;;1.70;;
21786;SDS011;11055;50.870;4.316;2023-03-23T06:17:26;9.82;;;2.13;;
21786;SDS011;11055;50.870;4.316;2023-03-23T06:19:52;4.78;;;1.55;;
21786;SDS011;11055;50.870;4.316;2023-03-23T06:22:18;7.95;;;1.80;;
21786;SDS011;11055;50.870;4.316;2023-03-23T06:24:44;6.00;;;1.65;;
21786;SDS011;11055;50.870;4.316;2023-03-23T06:27:09;6.90;;;1.85;;
21786;SDS011;11055;50.870;4.316;2023-03-23T06:29:35;5.38;;;1.63;;
21786;SDS011;11055;50.870;4.316;2023-03-23T06:32:02;9.50;;;1.88;;
21786;SDS011;11055;50.870;4.316;2023-03-23T06:34:29;9.43;;;1.67;;
21786;SDS011;11055;50.870;4.316;2023-03-23T06:36:56;7.65;;;2.25;;
21786;SDS011;11055;50.870;4.316;2023-03-23T06:39:22;5.60;;;1.85;;
21786;SDS011;11055;50.870;4.316;2023-03-23T06:41:49;6.03;;;2.00;;
21786;SDS011;11055;50.870;4.316;2023-03-23T06:44:15;7.75;;;1.75;;
21786;SDS011;11055;50.870;4.316;2023-03-23T06:46:41;7.07;;;1.92;;
21786;SDS011;11055;50.870;4.316;2023-03-23T06:49:07;6.10;;;1.95;;
21786;SDS011;11055;50.870;4.316;2023-03-23T06:51:33;9.02;;;2.22;;
21786;SDS011;11055;50.870;4.316;2023-03-23T06:54:00;7.32;;;1.40;;
21786;SDS011;11055;50.870;4.316;2023-03-23T06:56:26;6.35;;;1.45;;
21786;SDS011;11055;50.870;4.316;2023-03-23T06:58:51;1.92;;;0.88;;
21786;SDS011;11055;50.870;4.316;2023-03-23T07:01:17;2.92;;;1.08;;
21786;SDS011;11055;50.870;4.316;2023-03-23T07:03:43;2.50;;;0.90;;
21786;SDS011;11055;50.870;4.316;2023-03-23T07:06:09;4.00;;;0.70;;
21786;SDS011;11055;50.870;4.316;2023-03-23T07:08:35;3.83;;;0.90;;
21786;SDS011;11055;50.870;4.316;2023-03-23T07:11:01;4.43;;;1.00;;
21786;SDS011;11055;50.870;4.316;2023-03-23T07:13:27;1.90;;;0.80;;
21786;SDS011;11055;50.870;4.316;2023-03-23T07:15:53;2.75;;;0.70;;
21786;SDS011;11055;50.870;4.316;2023-03-23T07:18:19;2.95;;;1.00;;
21786;SDS011;11055;50.870;4.316;2023-03-23T07:20:49;4.80;;;1.00;;
21786;SDS011;11055;50.870;4.316;2023-03-23T07:23:16;4.85;;;1.00;;
21786;SDS011;11055;50.870;4.316;2023-03-23T07:25:42;3.05;;;1.10;;
21786;SDS011;11055;50.870;4.316;2023-03-23T07:28:08;1.55;;;0.82;;
21786;SDS011;11055;50.870;4.316;2023-03-23T07:30:34;3.17;;;1.10;;
21786;SDS011;11055;50.870;4.316;2023-03-23T07:33:03;3.55;;;1.30;;
21786;SDS011;11055;50.870;4.316;2023-03-23T07:35:32;3.28;;;1.10;;
21786;SDS011;11055;50.870;4.316;2023-03-23T07:37:59;1.80;;;1.20;;
21786;SDS011;11055;50.870;4.316;2023-03-23T07:40:24;3.47;;;1.77;;
21786;SDS011;11055;50.870;4.316;2023-03-23T07:42:53;4.82;;;1.50;;
21786;SDS011;11055;50.870;4.316;2023-03-23T07:45:21;6.32;;;1.73;;
21786;SDS011;11055;50.870;4.316;2023-03-23T07:47:47;5.72;;;2.33;;
21786;SDS011;11055;50.870;4.316;2023-03-23T07:50:12;4.45;;;2.20;;
21786;SDS011;11055;50.870;4.316;2023-03-23T07:52:38;6.28;;;2.20;;
21786;SDS011;11055;50.870;4.316;2023-03-23T07:55:06;5.82;;;2.75;;
21786;SDS011;11055;50.870;4.316;2023-03-23T07:57:34;6.57;;;1.70;;
21786;SDS011;11055;50.870;4.316;2023-03-23T08:00:00;5.60;;;1.95;;
21786;SDS011;11055;50.870;4.316;2023-03-23T08:02:25;7.50;;;1.58;;
21786;SDS011;11055;50.870;4.316;2023-03-23T08:04:52;6.38;;;2.90;;
21786;SDS011;11055;50.870;4.316;2023-03-23T08:07:18;5.13;;;1.80;;
21786;SDS011;11055;50.870;4.316;2023-03-23T08:09:45;6.85;;;1.90;;
21786;SDS011;11055;50.870;4.316;2023-03-23T08:12:12;4.35;;;1.80;;
21786;SDS011;11055;50.870;4.316;2023-03-23T08:14:38;2.85;;;1.38;;
21786;SDS011;11055;50.870;4.316;2023-03-23T08:17:06;3.97;;;1.67;;
21786;SDS011;11055;50.870;4.316;2023-03-23T08:19:33;4.90;;;1.50;;
21786;SDS011;11055;50.870;4.316;2023-03-23T08:22:02;3.67;;;0.98;;
21786;SDS011;11055;50.870;4.316;2023-03-23T08:24:31;3.45;;;1.20;;
21786;SDS011;11055;50.870;4.316;2023-03-23T08:26:58;2.50;;;1.30;;
21786;SDS011;11055;50.870;4.316;2023-03-23T08:29:24;3.42;;;1.10;;
21786;SDS011;11055;50.870;4.316;2023-03-23T08:31:50;4.40;;;1.10;;
21786;SDS011;11055;50.870;4.316;2023-03-23T08:34:16;2.83;;;1.00;;
21786;SDS011;11055;50.870;4.316;2023-03-23T08:36:42;4.20;;;1.23;;
21786;SDS011;11055;50.870;4.316;2023-03-23T08:39:09;3.00;;;1.20;;
21786;SDS011;11055;50.870;4.316;2023-03-23T08:41:35;3.80;;;1.20;;
21786;SDS011;11055;50.870;4.316;2023-03-23T08:44:01;6.28;;;1.50;;
21786;SDS011;11055;50.870;4.316;2023-03-23T08:46:27;4.07;;;1.60;;
21786;SDS011;11055;50.870;4.316;2023-03-23T08:48:53;4.13;;;1.70;;
21786;SDS011;11055;50.870;4.316;2023-03-23T08:51:19;5.90;;;1.60;;
21786;SDS011;11055;50.870;4.316;2023-03-23T08:53:45;5.93;;;1.60;;
21786;SDS011;11055;50.870;4.316;2023-03-23T08:56:11;3.80;;;1.58;;
21786;SDS011;11055;50.870;4.316;2023-03-23T08:58:38;4.70;;;1.45;;
21786;SDS011;11055;50.870;4.316;2023-03-23T09:01:05;5.05;;;1.50;;
21786;SDS011;11055;50.870;4.316;2023-03-23T09:03:32;3.35;;;1.30;;
21786;SDS011;11055;50.870;4.316;2023-03-23T09:06:00;4.20;;;1.40;;
21786;SDS011;11055;50.870;4.316;2023-03-23T09:08:27;3.40;;;1.40;;
21786;SDS011;11055;50.870;4.316;2023-03-23T09:10:55;3.97;;;1.40;;
21786;SDS011;11055;50.870;4.316;2023-03-23T09:13:23;4.35;;;1.33;;
21786;SDS011;11055;50.870;4.316;2023-03-23T09:15:49;2.85;;;1.40;;
21786;SDS011;11055;50.870;4.316;2023-03-23T09:18:16;3.45;;;1.23;;
21786;SDS011;11055;50.870;4.316;2023-03-23T09:20:42;4.68;;;2.00;;
21786;SDS011;11055;50.870;4.316;2023-03-23T09:23:08;4.88;;;1.70;;
21786;SDS011;11055;50.870;4.316;2023-03-23T09:25:34;4.68;;;1.40;;
21786;SDS011;11055;50.870;4.316;2023-03-23T09:28:00;3.42;;;1.52;;
21786;SDS011;11055;50.870;4.316;2023-03-23T09:30:27;2.90;;;1.17;;
21786;SDS011;11055;50.870;4.316;2023-03-23T09:32:59;2.95;;;1.10;;
21786;SDS011;11055;50.870;4.316;2023-03-23T09:35:26;2.22;;;1.10;;
21786;SDS011;11055;50.870;4.316;2023-03-23T09:37:53;3.28;;;1.33;;
21786;SDS011;11055;50.870;4.316;2023-03-23T09:56:55;3.70;;;1.40;;
21786;SDS011;11055;50.870;4.316;2023-03-23T09:59:27;3.05;;;1.23;;
21786;SDS011;11055;50.870;4.316;2023-03-23T10:02:18;3.17;;;1.70;;
21786;SDS011;11055;50.870;4.316;2023-03-23T10:04:54;3.95;;;1.40;;
21786;SDS011;11055;50.870;4.316;2023-03-23T10:07:39;3.50;;;1.23;;
21786;SDS011;11055;50.870;4.316;2023-03-23T10:10:08;3.28;;;1.38;;
21786;SDS011;11055;50.870;4.316;2023-03-23T10:15:17;3.83;;;1.40;;
21786;SDS011;11055;50.870;4.316;2023-03-23T10:17:48;3.67;;;1.30;;
21786;SDS011;11055;50.870;4.316;2023-03-23T10:21:17;3.95;;;1.40;;
21786;SDS011;11055;50.870;4.316;2023-03-23T10:28:37;3.78;;;1.85;;
21786;SDS011;11055;50.870;4.316;2023-03-23T10:31:08;4.07;;;1.70;;
21786;SDS011;11055;50.870;4.316;2023-03-23T10:33:40;3.13;;;1.50;;
21786;SDS011;11055;50.870;4.316;2023-03-23T10:39:12;4.25;;;1.90;;
21786;SDS011;11055;50.870;4.316;2023-03-23T10:41:38;5.75;;;1.90;;
21786;SDS011;11055;50.870;4.316;2023-03-23T10:44:10;5.47;;;1.83;;
21786;SDS011;11055;50.870;4.316;2023-03-23T10:57:35;9.20;;;2.55;;
21786;SDS011;11055;50.870;4.316;2023-03-23T11:00:23;6.55;;;2.08;;
21786;SDS011;11055;50.870;4.316;2023-03-23T11:06:06;6.15;;;2.53;;
21786;SDS011;11055;50.870;4.316;2023-03-23T11:08:27;6.32;;;2.53;;
21786;SDS011;11055;50.870;4.316;2023-03-23T11:13:48;4.80;;;2.20;;
21786;SDS011;11055;50.870;4.316;2023-03-23T11:16:26;4.95;;;2.10;;
21786;SDS011;11055;50.870;4.316;2023-03-23T11:18:54;5.63;;;1.98;;
21786;SDS011;11055;50.870;4.316;2023-03-23T11:21:20;9.50;;;2.60;;
21786;SDS011;11055;50.870;4.316;2023-03-23T11:23:49;8.73;;;2.70;;
21786;SDS011;11055;50.870;4.316;2023-03-23T11:26:26;7.40;;;2.20;;
21786;SDS011;11055;50.870;4.316;2023-03-23T11:28:57;7.50;;;2.45;;
21786;SDS011;11055;50.870;4.316;2023-03-23T11:31:49;5.78;;;2.30;;
21786;SDS011;11055;50.870;4.316;2023-03-23T11:34:19;8.20;;;2.85;;
21786;SDS011;11055;50.870;4.316;2023-03-23T11:36:50;5.53;;;2.60;;
21786;SDS011;11055;50.870;4.316;2023-03-23T11:41:57;8.55;;;2.72;;
21786;SDS011;11055;50.870;4.316;2023-03-23T11:44:33;7.15;;;2.53;;
21786;SDS011;11055;50.870;4.316;2023-03-23T11:49:46;6.55;;;2.38;;
21786;SDS011;11055;50.870;4.316;2023-03-23T11:54:52;5.35;;;2.30;;
21786;SDS011;11055;50.870;4.316;2023-03-23T11:57:35;6.00;;;2.10;;
21786;SDS011;11055;50.870;4.316;2023-03-23T12:00:01;8.90;;;1.90;;
21786;SDS011;11055;50.870;4.316;2023-03-23T12:02:42;4.93;;;1.95;;
21786;SDS011;11055;50.870;4.316;2023-03-23T12:19:27;5.13;;;1.70;;
21786;SDS011;11055;50.870;4.316;2023-03-23T12:24:59;5.82;;;1.80;;
21786;SDS011;11055;50.870;4.316;2023-03-23T12:27:40;5.30;;;2.10;;
21786;SDS011;11055;50.870;4.316;2023-03-23T12:33:26;6.45;;;2.20;;
21786;SDS011;11055;50.870;4.316;2023-03-23T12:41:15;6.35;;;1.98;;
21786;SDS011;11055;50.870;4.316;2023-03-23T12:49:25;6.22;;;1.83;;
21786;SDS011;11055;50.870;4.316;2023-03-23T12:52:03;5.05;;;1.80;;
21786;SDS011;11055;50.870;4.316;2023-03-23T12:57:58;8.60;;;3.08;;
21786;SDS011;11055;50.870;4.316;2023-03-23T13:00:29;6.43;;;1.98;;
21786;SDS011;11055;50.870;4.316;2023-03-23T13:08:28;9.15;;;2.90;;
21786;SDS011;11055;50.870;4.316;2023-03-23T13:10:59;10.73;;;2.35;;
21786;SDS011;11055;50.870;4.316;2023-03-23T13:13:43;7.60;;;2.40;;
21786;SDS011;11055;50.870;4.316;2023-03-23T13:24:54;5.32;;;2.38;;
21786;SDS011;11055;50.870;4.316;2023-03-23T13:27:23;7.90;;;2.70;;
21786;SDS011;11055;50.870;4.316;2023-03-23T13:29:52;7.13;;;2.67;;
21786;SDS011;11055;50.870;4.316;2023-03-23T13:32:29;9.70;;;2.10;;
21786;SDS011;11055;50.870;4.316;2023-03-23T13:35:00;9.88;;;2.40;;
21786;SDS011;11055;50.870;4.316;2023-03-23T13:37:31;6.38;;;1.58;;
21786;SDS011;11055;50.870;4.316;2023-03-23T13:40:11;6.80;;;2.08;;
21786;SDS011;11055;50.870;4.316;2023-03-23T13:42:48;6.13;;;2.33;;
21786;SDS011;11055;50.870;4.316;2023-03-23T13:51:22;9.40;;;3.38;;
21786;SDS011;11055;50.870;4.316;2023-03-23T13:53:45;9.27;;;2.97;;
21786;SDS011;11055;50.870;4.316;2023-03-23T13:56:17;8.43;;;2.67;;
21786;SDS011;11055;50.870;4.316;2023-03-23T13:59:12;9.48;;;2.95;;
21786;SDS011;11055;50.870;4.316;2023-03-23T14:01:40;8.75;;;3.05;;
21786;SDS011;11055;50.870;4.316;2023-03-23T14:04:10;6.88;;;2.00;;
21786;SDS011;11055;50.870;4.316;2023-03-23T14:06:39;5.00;;;2.00;;
21786;SDS011;11055;50.870;4.316;2023-03-23T14:09:06;6.82;;;2.28;;
21786;SDS011;11055;50.870;4.316;2023-03-23T14:12:13;7.68;;;2.40;;
21786;SDS011;11055;50.870;4.316;2023-03-23T14:14:42;7.95;;;2.92;;
21786;SDS011;11055;50.870;4.316;2023-03-23T14:19:57;9.18;;;3.40;;
21786;SDS011;11055;50.870;4.316;2023-03-23T14:22:25;8.18;;;4.10;;
21786;SDS011;11055;50.870;4.316;2023-03-23T14:25:02;7.35;;;2.55;;
21786;SDS011;11055;50.870;4.316;2023-03-23T14:27:41;7.75;;;2.67;;
21786;SDS011;11055;50.870;4.316;2023-03-23T14:30:12;7.57;;;2.70;;
21786;SDS011;11055;50.870;4.316;2023-03-23T14:32:39;7.97;;;2.40;;
21786;SDS011;11055;50.870;4.316;2023-03-23T14:35:14;8.60;;;2.55;;
21786;SDS011;11055;50.870;4.316;2023-03-23T14:37:56;9.95;;;2.08;;
21786;SDS011;11055;50.870;4.316;2023-03-23T14:40:22;7.50;;;2.45;;
21786;SDS011;11055;50.870;4.316;2023-03-23T14:42:52;9.30;;;2.55;;
21786;SDS011;11055;50.870;4.316;2023-03-23T14:45:20;7.93;;;2.58;;
21786;SDS011;11055;50.870;4.316;2023-03-23T14:47:51;4.57;;;2.35;;
21786;SDS011;11055;50.870;4.316;2023-03-23T14:50:27;7.47;;;2.22;;
21786;SDS011;11055;50.870;4.316;2023-03-23T14:53:02;7.93;;;2.65;;
21786;SDS011;11055;50.870;4.316;2023-03-23T14:55:36;7.68;;;1.80;;
21786;SDS011;11055;50.870;4.316;2023-03-23T14:58:05;7.13;;;2.80;;
21786;SDS011;11055;50.870;4.316;2023-03-23T15:00:34;7.05;;;2.10;;
21786;SDS011;11055;50.870;4.316;2023-03-23T15:03:04;8.10;;;2.50;;
21786;SDS011;11055;50.870;4.316;2023-03-23T15:05:36;4.72;;;2.00;;
21786;SDS011;11055;50.870;4.316;2023-03-23T15:08:06;7.30;;;2.57;;
21786;SDS011;11055;50.870;4.316;2023-03-23T15:10:37;6.88;;;2.42;;
21786;SDS011;11055;50.870;4.316;2023-03-23T15:13:04;7.25;;;2.03;;
21786;SDS011;11055;50.870;4.316;2023-03-23T15:15:31;13.15;;;2.88;;
21786;SDS011;11055;50.870;4.316;2023-03-23T15:17:59;9.35;;;3.15;;
21786;SDS011;11055;50.870;4.316;2023-03-23T15:20:30;7.07;;;2.33;;
21786;SDS011;11055;50.870;4.316;2023-03-23T15:23:16;11.93;;;3.13;;
21786;SDS011;11055;50.870;4.316;2023-03-23T15:25:51;9.30;;;2.97;;
21786;SDS011;11055;50.870;4.316;2023-03-23T15:28:31;10.15;;;2.25;;
21786;SDS011;11055;50.870;4.316;2023-03-23T15:31:00;10.50;;;2.97;;
21786;SDS011;11055;50.870;4.316;2023-03-23T15:33:33;10.57;;;2.90;;
21786;SDS011;11055;50.870;4.316;2023-03-23T15:36:07;7.97;;;3.10;;
21786;SDS011;11055;50.870;4.316;2023-03-23T15:38:42;8.52;;;3.38;;
21786;SDS011;11055;50.870;4.316;2023-03-23T15:41:20;9.25;;;3.78;;
21786;SDS011;11055;50.870;4.316;2023-03-23T15:43:54;15.27;;;5.55;;
21786;SDS011;11055;50.870;4.316;2023-03-23T15:46:27;13.38;;;5.70;;
21786;SDS011;11055;50.870;4.316;2023-03-23T15:49:04;13.27;;;4.85;;
21786;SDS011;11055;50.870;4.316;2023-03-23T15:51:35;17.73;;;5.93;;
21786;SDS011;11055;50.870;4.316;2023-03-23T15:54:02;15.40;;;7.18;;
21786;SDS011;11055;50.870;4.316;2023-03-23T15:56:28;12.85;;;6.28;;
21786;SDS011;11055;50.870;4.316;2023-03-23T15:58:56;18.75;;;6.28;;
21786;SDS011;11055;50.870;4.316;2023-03-23T16:01:25;11.48;;;5.25;;
21786;SDS011;11055;50.870;4.316;2023-03-23T16:03:54;10.02;;;4.60;;
21786;SDS011;11055;50.870;4.316;2023-03-23T16:06:26;10.32;;;3.92;;
21786;SDS011;11055;50.870;4.316;2023-03-23T16:08:55;9.48;;;3.22;;
21786;SDS011;11055;50.870;4.316;2023-03-23T16:11:22;10.63;;;3.33;;
21786;SDS011;11055;50.870;4.316;2023-03-23T16:13:49;10.23;;;3.00;;
21786;SDS011;11055;50.870;4.316;2023-03-23T16:16:16;8.85;;;2.15;;
21786;SDS011;11055;50.870;4.316;2023-03-23T16:18:45;6.88;;;2.20;;
21786;SDS011;11055;50.870;4.316;2023-03-23T16:21:10;4.80;;;2.08;;
21786;SDS011;11055;50.870;4.316;2023-03-23T16:23:36;8.15;;;2.30;;
21786;SDS011;11055;50.870;4.316;2023-03-23T16:26:02;5.68;;;1.75;;
21786;SDS011;11055;50.870;4.316;2023-03-23T16:28:28;8.45;;;2.42;;
21786;SDS011;11055;50.870;4.316;2023-03-23T16:30:54;7.72;;;2.20;;
21786;SDS011;11055;50.870;4.316;2023-03-23T16:33:20;6.32;;;2.50;;
21786;SDS011;11055;50.870;4.316;2023-03-23T16:35:46;8.65;;;2.22;;
21786;SDS011;11055;50.870;4.316;2023-03-23T16:38:12;10.80;;;3.05;;
21786;SDS011;11055;50.870;4.316;2023-03-23T16:40:40;12.13;;;3.55;;
21786;SDS011;11055;50.870;4.316;2023-03-23T16:43:07;10.55;;;3.03;;
21786;SDS011;11055;50.870;4.316;2023-03-23T16:45:33;9.48;;;2.90;;
21786;SDS011;11055;50.870;4.316;2023-03-23T16:47:58;11.93;;;3.40;;
21786;SDS011;11055;50.870;4.316;2023-03-23T16:50:26;16.63;;;4.75;;
21786;SDS011;11055;50.870;4.316;2023-03-23T16:52:53;13.15;;;5.97;;
21786;SDS011;11055;50.870;4.316;2023-03-23T16:55:19;15.32;;;6.35;;
21786;SDS011;11055;50.870;4.316;2023-03-23T16:57:45;12.93;;;5.43;;
21786;SDS011;11055;50.870;4.316;2023-03-23T17:00:15;10.85;;;4.80;;
21786;SDS011;11055;50.870;4.316;2023-03-23T17:02:46;13.38;;;4.85;;
21786;SDS011;11055;50.870;4.316;2023-03-23T17:05:14;9.15;;;3.53;;
21786;SDS011;11055;50.870;4.316;2023-03-23T17:07:41;11.20;;;3.58;;
21786;SDS011;11055;50.870;4.316;2023-03-23T17:10:07;9.63;;;2.90;;